createdAt,value
2018-12-23T00:01:21.405Z,88.10
2018-12-23T00:03:50.398Z,88.10
2018-12-23T00:06:19.386Z,88.40
2018-12-23T00:08:48.398Z,88.30
2018-12-23T00:11:17.374Z,88.30
2018-12-23T00:13:46.395Z,88.20
2018-12-23T00:16:15.343Z,87.70
2018-12-23T00:18:44.379Z,87.30
2018-12-23T00:21:13.351Z,87.40
2018-12-23T00:23:42.355Z,86.70
2018-12-23T00:26:11.322Z,86.70
2018-12-23T00:28:40.327Z,87.40
2018-12-23T00:31:09.287Z,87.90
2018-12-23T00:33:38.244Z,89.40
2018-12-23T00:36:07.336Z,90.00
2018-12-23T00:38:36.283Z,90.40
2018-12-23T00:41:05.301Z,90.60
2018-12-23T00:43:34.253Z,90.90
2018-12-23T00:46:03.289Z,91.00
2018-12-23T00:48:32.246Z,90.90
2018-12-23T00:51:01.211Z,91.00
2018-12-23T00:53:30.185Z,90.90
2018-12-23T00:55:59.169Z,90.90
2018-12-23T00:58:28.123Z,90.50
2018-12-23T01:00:57.105Z,90.60
2018-12-23T01:03:26.123Z,90.50
2018-12-23T01:05:55.098Z,90.60
2018-12-23T01:08:24.238Z,90.60
2018-12-23T01:10:53.357Z,90.40
2018-12-23T01:13:22.329Z,90.40
2018-12-23T01:15:51.298Z,90.30
2018-12-23T01:18:20.297Z,90.20
2018-12-23T01:20:49.256Z,90.20
2018-12-23T01:23:18.236Z,90.30
2018-12-23T01:25:47.195Z,90.30
2018-12-23T01:28:16.261Z,90.40
2018-12-23T01:30:45.250Z,90.30
2018-12-23T01:33:14.232Z,90.30
2018-12-23T01:35:43.453Z,90.30
2018-12-23T01:38:12.422Z,90.40
2018-12-23T01:40:42.454Z,90.40
2018-12-23T01:43:11.430Z,90.40
2018-12-23T01:45:40.474Z,90.50
2018-12-23T01:48:09.432Z,90.40
2018-12-23T01:50:38.398Z,90.50
2018-12-23T01:53:07.392Z,90.50
2018-12-23T01:55:36.420Z,90.50
2018-12-23T01:58:05.510Z,90.50
2018-12-23T02:00:34.534Z,90.50
2018-12-23T02:03:03.559Z,90.50
2018-12-23T02:05:31.945Z,90.50
2018-12-23T02:08:00.909Z,90.50
2018-12-23T02:10:29.883Z,90.50
2018-12-23T02:12:59.021Z,90.40
2018-12-23T02:15:28.389Z,90.40
2018-12-23T02:17:57.343Z,90.30
2018-12-23T02:20:26.511Z,90.30
2018-12-23T02:22:55.630Z,90.20
2018-12-23T02:25:24.844Z,90.20
2018-12-23T02:27:53.849Z,90.20
2018-12-23T02:30:22.793Z,90.20
2018-12-23T02:32:51.733Z,90.20
2018-12-23T02:35:20.691Z,90.20
2018-12-23T02:37:49.728Z,90.10
2018-12-23T02:40:18.711Z,90.10
2018-12-23T02:42:47.817Z,90.00
2018-12-23T02:45:17.109Z,90.00
2018-12-23T02:47:46.106Z,90.00
2018-12-23T02:50:15.049Z,90.00
2018-12-23T02:52:44.017Z,90.00
2018-12-23T02:55:13.877Z,90.00
2018-12-23T02:57:43.338Z,89.90
2018-12-23T03:00:12.292Z,89.90
2018-12-23T03:02:41.289Z,89.70
2018-12-23T03:05:10.375Z,90.20
2018-12-23T03:07:39.359Z,89.70
2018-12-23T03:10:08.409Z,89.70
2018-12-23T03:12:37.482Z,89.70
2018-12-23T03:15:06.531Z,90.00
2018-12-23T03:17:35.508Z,89.70
2018-12-23T03:20:04.940Z,89.70
2018-12-23T03:22:34.040Z,89.60
2018-12-23T03:25:02.981Z,89.60
2018-12-23T03:27:31.950Z,89.70
2018-12-23T03:30:00.900Z,89.80
2018-12-23T03:32:29.858Z,89.90
2018-12-23T03:34:58.894Z,90.00
2018-12-23T03:37:27.899Z,90.20
2018-12-23T03:39:56.852Z,90.10
2018-12-23T03:42:25.878Z,90.20
2018-12-23T03:44:55.391Z,90.20
2018-12-23T03:47:25.250Z,90.20
2018-12-23T03:49:54.426Z,90.30
2018-12-23T03:52:23.404Z,90.40
2018-12-23T03:54:52.377Z,90.60
2018-12-23T03:57:21.381Z,90.60
2018-12-23T03:59:50.349Z,90.70
2018-12-23T04:02:19.311Z,90.80
2018-12-23T04:04:48.359Z,90.80
2018-12-23T04:07:17.311Z,91.00
2018-12-23T04:09:46.311Z,91.00
2018-12-23T04:12:15.310Z,91.10
2018-12-23T04:14:44.267Z,91.20
2018-12-23T04:17:13.330Z,91.30
2018-12-23T04:19:42.560Z,91.70
2018-12-23T04:22:11.530Z,91.30
2018-12-23T04:24:42.038Z,91.40
2018-12-23T04:27:11.005Z,91.40
2018-12-23T04:29:40.571Z,91.50
2018-12-23T04:32:09.626Z,91.60
2018-12-23T04:34:38.588Z,91.60
2018-12-23T04:37:07.550Z,91.70
2018-12-23T04:39:36.551Z,91.70
2018-12-23T04:42:05.842Z,91.70
2018-12-23T04:44:34.791Z,91.80
2018-12-23T04:47:03.901Z,91.80
2018-12-23T04:49:32.850Z,91.80
2018-12-23T04:52:01.834Z,91.80
2018-12-23T04:54:30.797Z,91.80
2018-12-23T04:56:59.768Z,91.80
2018-12-23T04:59:28.767Z,91.80
2018-12-23T05:01:57.777Z,91.80
2018-12-23T05:04:26.775Z,91.80
2018-12-23T05:06:55.848Z,91.80
2018-12-23T05:09:25.447Z,91.80
2018-12-23T05:11:54.473Z,91.80
2018-12-23T05:14:23.426Z,91.80
2018-12-23T05:16:52.451Z,91.70
2018-12-23T05:19:21.424Z,91.80
2018-12-23T05:21:50.408Z,91.80
2018-12-23T05:24:19.361Z,91.70
2018-12-23T05:26:48.328Z,91.70
2018-12-23T05:29:17.323Z,91.70
2018-12-23T05:31:46.389Z,91.80
2018-12-23T05:34:15.343Z,91.80
2018-12-23T05:36:52.199Z,91.90
2018-12-23T05:39:14.792Z,92.00
2018-12-23T05:41:43.763Z,92.00
2018-12-23T05:44:12.809Z,92.00
2018-12-23T05:46:42.301Z,92.10
2018-12-23T05:49:11.283Z,92.20
2018-12-23T05:51:40.280Z,92.30
2018-12-23T05:54:09.253Z,92.30
2018-12-23T05:56:38.371Z,92.40
2018-12-23T05:59:07.391Z,92.50
2018-12-23T06:01:36.337Z,92.50
2018-12-23T06:04:05.299Z,92.50
2018-12-23T06:06:34.289Z,92.50
2018-12-23T06:09:05.417Z,92.50
2018-12-23T06:11:34.243Z,92.50
2018-12-23T06:14:03.266Z,92.50
2018-12-23T06:16:32.253Z,92.40
2018-12-23T06:19:01.242Z,92.40
2018-12-23T06:21:30.250Z,92.40
2018-12-23T06:23:59.213Z,92.40
2018-12-23T06:26:28.163Z,92.30
2018-12-23T06:28:57.166Z,92.30
2018-12-23T06:31:26.230Z,92.30
2018-12-23T06:33:55.219Z,92.20
2018-12-23T06:36:24.231Z,92.20
2018-12-23T06:38:53.225Z,92.20
2018-12-23T06:41:22.280Z,92.20
2018-12-23T06:43:51.423Z,92.10
2018-12-23T06:46:20.440Z,92.10
2018-12-23T06:48:49.580Z,92.20
2018-12-23T06:51:18.889Z,92.00
2018-12-23T06:53:47.851Z,92.00
2018-12-23T06:56:16.872Z,91.80
2018-12-23T06:58:45.872Z,91.80
2018-12-23T07:01:15.046Z,91.70
2018-12-23T07:03:44.064Z,91.60
2018-12-23T07:06:13.134Z,91.60
2018-12-23T07:08:42.368Z,91.60
2018-12-23T07:11:11.350Z,91.50
2018-12-23T07:13:40.424Z,91.40
2018-12-23T07:16:09.377Z,91.40
2018-12-23T07:18:38.350Z,91.40
2018-12-23T07:21:07.596Z,91.30
2018-12-23T07:23:36.716Z,91.20
2018-12-23T07:26:05.808Z,91.20
2018-12-23T07:28:34.752Z,91.20
2018-12-23T07:31:03.795Z,91.20
2018-12-23T07:33:33.195Z,91.10
2018-12-23T07:36:02.396Z,91.00
2018-12-23T07:38:31.385Z,90.80
2018-12-23T07:41:00.376Z,90.80
2018-12-23T07:43:29.349Z,90.90
2018-12-23T07:45:58.376Z,90.80
2018-12-23T07:48:27.388Z,90.70
2018-12-23T07:50:56.352Z,90.60
2018-12-23T07:53:25.303Z,90.40
2018-12-23T07:55:54.336Z,90.40
2018-12-23T07:58:23.346Z,90.60
2018-12-23T08:00:52.359Z,90.50
2018-12-23T08:03:21.333Z,90.40
2018-12-23T08:05:50.431Z,90.30
2018-12-23T08:08:19.394Z,90.30
2018-12-23T08:10:48.353Z,90.40
2018-12-23T08:13:17.323Z,90.40
2018-12-23T08:15:46.290Z,90.50
2018-12-23T08:18:15.273Z,90.50
2018-12-23T08:20:44.277Z,90.40
2018-12-23T08:23:13.233Z,90.50
2018-12-23T08:25:42.510Z,90.60
2018-12-23T08:28:12.108Z,90.60
2018-12-23T08:30:41.082Z,90.60
2018-12-23T08:33:10.036Z,90.70
2018-12-23T08:35:39.050Z,90.60
2018-12-23T08:38:08.073Z,90.50
2018-12-23T08:40:37.029Z,90.40
2018-12-23T08:43:05.987Z,90.30
2018-12-23T08:45:34.977Z,90.00
2018-12-23T08:48:03.971Z,89.90
2018-12-23T08:50:33.052Z,89.30
2018-12-23T08:53:02.229Z,89.20
2018-12-23T08:55:31.199Z,90.00
2018-12-23T08:58:00.192Z,89.20
2018-12-23T09:00:29.182Z,88.80
2018-12-23T09:02:59.003Z,88.70
2018-12-23T09:05:28.003Z,89.10
2018-12-23T09:07:56.989Z,88.50
2018-12-23T09:10:25.950Z,88.40
2018-12-23T09:12:54.924Z,88.50
2018-12-23T09:15:23.984Z,88.20
2018-12-23T09:17:52.941Z,87.90
2018-12-23T09:20:21.909Z,87.50
2018-12-23T09:22:50.963Z,87.50
2018-12-23T09:25:19.966Z,87.60
2018-12-23T09:27:48.907Z,87.50
2018-12-23T09:30:17.921Z,87.60
2018-12-23T09:32:46.894Z,87.60
2018-12-23T09:35:15.853Z,87.20
2018-12-23T09:37:45.090Z,87.00
2018-12-23T09:40:14.048Z,86.70
2018-12-23T09:42:43.112Z,86.80
2018-12-23T09:45:12.057Z,86.60
2018-12-23T09:47:41.098Z,86.00
2018-12-23T09:50:10.154Z,86.20
2018-12-23T09:52:39.326Z,86.40
2018-12-23T09:55:08.348Z,85.70
2018-12-23T09:57:37.348Z,85.70
2018-12-23T10:00:08.016Z,85.90
2018-12-23T10:02:37.081Z,85.90
2018-12-23T10:05:06.680Z,85.80
2018-12-23T10:07:36.186Z,85.90
2018-12-23T10:10:06.790Z,85.90
2018-12-23T10:12:35.806Z,85.60
2018-12-23T10:15:05.438Z,85.40
2018-12-23T10:17:34.414Z,85.50
2018-12-23T10:20:03.426Z,85.20
2018-12-23T10:22:32.415Z,85.30
2018-12-23T10:25:01.385Z,85.20
2018-12-23T10:27:30.456Z,85.00
2018-12-23T10:29:59.423Z,85.00
2018-12-23T10:32:28.388Z,84.80
2018-12-23T10:34:57.390Z,84.90
2018-12-23T10:37:26.355Z,84.80
2018-12-23T10:39:55.353Z,84.30
2018-12-23T10:42:24.315Z,84.70
2018-12-23T10:44:53.307Z,84.80
2018-12-23T10:47:22.261Z,84.70
2018-12-23T10:49:51.234Z,84.60
2018-12-23T10:52:20.214Z,84.70
2018-12-23T10:54:49.185Z,84.60
2018-12-23T10:57:18.179Z,84.20
2018-12-23T10:59:47.426Z,84.30
2018-12-23T11:02:16.389Z,84.20
2018-12-23T11:04:45.375Z,84.30
2018-12-23T11:07:14.372Z,84.30
2018-12-23T11:09:43.359Z,83.50
2018-12-23T11:12:12.360Z,84.00
2018-12-23T11:14:41.396Z,84.00
2018-12-23T11:17:10.346Z,83.90
2018-12-23T11:19:39.308Z,83.70
2018-12-23T11:22:08.640Z,84.50
2018-12-23T11:24:37.627Z,83.40
2018-12-23T11:27:06.624Z,83.40
2018-12-23T11:29:35.678Z,83.60
2018-12-23T11:32:04.684Z,83.40
2018-12-23T11:34:33.730Z,83.00
2018-12-23T11:37:02.709Z,83.30
2018-12-23T11:39:31.663Z,83.20
2018-12-23T11:42:00.716Z,83.30
2018-12-23T11:44:29.672Z,82.80
2018-12-23T11:46:58.692Z,83.00
2018-12-23T11:49:27.664Z,82.80
2018-12-23T11:51:56.624Z,82.50
2018-12-23T11:54:25.664Z,82.60
2018-12-23T11:56:54.630Z,82.20
2018-12-23T11:59:23.602Z,82.50
2018-12-23T12:01:52.662Z,82.70
2018-12-23T12:04:21.608Z,83.00
2018-12-23T12:06:50.614Z,82.50
2018-12-23T12:09:19.568Z,83.00
2018-12-23T12:11:48.606Z,83.00
2018-12-23T12:14:17.593Z,83.20
2018-12-23T12:16:46.598Z,83.00
2018-12-23T12:19:15.582Z,83.00
2018-12-23T12:21:44.534Z,83.00
2018-12-23T12:24:13.500Z,82.60
2018-12-23T12:26:42.452Z,82.70
2018-12-23T12:29:11.438Z,83.00
2018-12-23T12:31:40.402Z,82.90
2018-12-23T12:34:09.361Z,82.90
2018-12-23T12:36:38.320Z,83.10
2018-12-23T12:39:07.665Z,83.20
2018-12-23T12:41:36.735Z,83.20
2018-12-23T12:44:05.730Z,83.40
2018-12-23T12:46:34.710Z,83.40
2018-12-23T12:49:03.703Z,83.50
2018-12-23T12:51:32.730Z,83.70
2018-12-23T12:54:01.697Z,83.70
2018-12-23T12:56:30.685Z,83.70
2018-12-23T12:58:59.675Z,83.90
2018-12-23T13:01:28.627Z,84.10
2018-12-23T13:03:59.027Z,84.10
2018-12-23T13:06:28.358Z,84.10
2018-12-23T13:09:00.652Z,84.30
2018-12-23T13:11:28.370Z,84.10
2018-12-23T13:13:57.426Z,84.20
2018-12-23T13:16:26.529Z,84.30
2018-12-23T13:18:55.556Z,84.40
2018-12-23T13:21:24.608Z,84.50
2018-12-23T13:23:53.580Z,84.60
2018-12-23T13:26:22.598Z,84.70
2018-12-23T13:28:51.568Z,84.70
2018-12-23T13:31:24.572Z,84.90
2018-12-23T13:33:53.574Z,84.80
2018-12-23T13:36:24.236Z,85.00
2018-12-23T13:38:53.468Z,85.10
2018-12-23T13:41:26.825Z,85.30
2018-12-23T13:44:04.090Z,85.50
2018-12-23T13:46:41.961Z,85.70
2018-12-23T13:49:27.866Z,86.00
2018-12-23T13:52:05.063Z,86.20
2018-12-23T13:58:19.809Z,86.30
2018-12-23T14:00:54.808Z,86.50
2018-12-23T14:03:35.709Z,87.50
2018-12-23T14:06:26.355Z,86.70
2018-12-23T14:08:58.588Z,87.00
2018-12-23T14:11:56.655Z,87.00
2018-12-23T14:14:25.789Z,87.20
2018-12-23T14:16:54.934Z,87.50
2018-12-23T14:19:24.099Z,87.50
2018-12-23T14:21:53.253Z,87.60
2018-12-23T14:24:22.420Z,87.70
2018-12-23T14:26:51.562Z,87.80
2018-12-23T14:29:20.729Z,88.20
2018-12-23T14:31:49.884Z,88.40
2018-12-23T14:34:19.059Z,88.80
2018-12-23T14:36:48.205Z,88.70
2018-12-23T14:39:25.762Z,89.00
2018-12-23T14:41:48.353Z,89.10
2018-12-23T14:44:17.489Z,89.40
2018-12-23T14:46:46.662Z,89.40
2018-12-23T14:49:15.833Z,89.50
2018-12-23T14:51:44.979Z,89.80
2018-12-23T14:54:14.146Z,89.80
2018-12-23T14:56:43.274Z,90.00
2018-12-23T14:59:12.564Z,90.00
2018-12-23T15:01:41.720Z,90.00
2018-12-23T15:04:10.843Z,90.10
2018-12-23T15:06:40.022Z,90.20
2018-12-23T15:09:09.252Z,90.20
2018-12-23T15:11:38.378Z,90.20
2018-12-23T15:14:07.548Z,90.20
2018-12-23T15:16:36.738Z,90.20
2018-12-23T15:19:05.898Z,90.20
2018-12-23T15:21:35.034Z,90.10
2018-12-23T15:24:05.977Z,90.00
2018-12-23T15:26:35.063Z,89.70
2018-12-23T15:29:04.217Z,89.70
2018-12-23T15:31:33.354Z,89.20
2018-12-23T15:34:02.480Z,89.30
2018-12-23T15:36:31.629Z,89.40
2018-12-23T15:39:00.782Z,89.20
2018-12-23T15:41:29.905Z,89.70
2018-12-23T15:43:59.057Z,88.90
2018-12-23T15:46:28.201Z,89.00
2018-12-23T15:48:57.609Z,88.90
2018-12-23T15:51:26.804Z,88.70
2018-12-23T15:53:55.961Z,88.60
2018-12-23T15:56:25.102Z,88.50
2018-12-23T15:58:54.232Z,89.20
2018-12-23T16:01:23.390Z,88.60
2018-12-23T16:03:52.547Z,88.70
2018-12-23T16:06:21.683Z,88.50
2018-12-23T16:08:50.829Z,88.40
2018-12-23T16:11:19.969Z,88.30
2018-12-23T16:13:49.151Z,88.40
2018-12-23T16:16:18.279Z,88.30
2018-12-23T16:18:47.423Z,88.30
2018-12-23T16:21:16.573Z,88.40
2018-12-23T16:23:45.725Z,88.30
2018-12-23T16:26:14.891Z,88.40
2018-12-23T16:28:44.129Z,88.40
2018-12-23T16:31:13.309Z,88.50
2018-12-23T16:33:42.457Z,88.60
2018-12-23T16:36:11.607Z,88.60
2018-12-23T16:38:40.755Z,88.20
2018-12-23T16:41:09.931Z,88.40
2018-12-23T16:43:39.073Z,88.80
2018-12-23T16:46:08.215Z,89.00
2018-12-23T16:48:37.419Z,88.60
2018-12-23T16:51:06.602Z,89.10
2018-12-23T16:53:35.761Z,89.20
2018-12-23T16:56:04.969Z,89.00
2018-12-23T16:58:34.125Z,89.20
2018-12-23T17:01:03.274Z,89.20
2018-12-23T17:03:32.476Z,89.40
2018-12-23T17:06:01.662Z,89.60
2018-12-23T17:08:30.798Z,89.50
2018-12-23T17:10:59.949Z,89.90
2018-12-23T17:13:29.102Z,89.80
2018-12-23T17:15:58.250Z,90.00
2018-12-23T17:18:27.449Z,90.20
2018-12-23T17:20:56.590Z,90.20
2018-12-23T17:23:25.745Z,90.20
2018-12-23T17:25:54.882Z,90.30
2018-12-23T17:28:24.032Z,90.40
2018-12-23T17:30:53.158Z,90.40
2018-12-23T17:33:22.312Z,90.40
2018-12-23T17:35:51.443Z,90.40
2018-12-23T17:38:20.753Z,90.60
2018-12-23T17:40:49.904Z,90.60
2018-12-23T17:43:19.056Z,90.60
2018-12-23T17:45:48.184Z,90.70
2018-12-23T17:48:17.400Z,90.70
2018-12-23T17:50:46.739Z,90.80
2018-12-23T17:53:15.983Z,90.80
2018-12-23T17:55:45.199Z,90.80
2018-12-23T17:58:14.330Z,90.80
2018-12-23T18:00:43.487Z,90.90
2018-12-23T18:03:12.697Z,90.90
2018-12-23T18:05:41.853Z,91.00
2018-12-23T18:08:11.013Z,91.00
2018-12-23T18:10:40.174Z,91.00
2018-12-23T18:13:09.385Z,91.00
2018-12-23T18:15:38.612Z,91.10
2018-12-23T18:18:07.773Z,91.10
2018-12-23T18:20:36.949Z,91.00
2018-12-23T18:23:06.105Z,91.10
2018-12-23T18:25:35.265Z,91.10
2018-12-23T18:28:04.429Z,91.00
2018-12-23T18:30:33.593Z,91.10
2018-12-23T18:33:02.767Z,91.10
2018-12-23T18:35:31.974Z,91.10
2018-12-23T18:38:01.124Z,91.10
2018-12-23T18:40:33.489Z,91.10
2018-12-23T18:43:01.294Z,91.10
2018-12-23T18:45:30.448Z,91.10
2018-12-23T18:47:59.577Z,91.10
2018-12-23T18:50:28.732Z,91.00
2018-12-23T18:52:57.858Z,91.00
2018-12-23T18:55:28.550Z,91.00
2018-12-23T18:57:57.670Z,91.30
2018-12-23T19:00:26.820Z,91.00
2018-12-23T19:03:15.306Z,91.00
2018-12-23T19:05:44.453Z,91.00
2018-12-23T19:08:13.750Z,91.00
2018-12-23T19:10:46.038Z,91.00
2018-12-23T19:13:30.133Z,91.00
2018-12-23T19:16:19.108Z,90.90
2018-12-23T19:19:12.301Z,90.90
2018-12-23T19:22:07.167Z,90.90
2018-12-23T19:24:57.384Z,90.90
2018-12-23T19:27:32.445Z,91.00
2018-12-23T19:30:07.329Z,90.80
2018-12-23T19:32:48.297Z,90.90
2018-12-23T19:35:23.175Z,90.90
2018-12-23T19:38:27.593Z,90.90
2018-12-23T19:41:34.931Z,91.00
2018-12-23T19:44:23.567Z,91.00
2018-12-23T19:47:21.317Z,90.90
2018-12-23T19:49:59.463Z,91.00
2018-12-23T19:53:00.737Z,91.00
2018-12-23T19:55:41.806Z,91.10
2018-12-23T19:58:35.463Z,91.20
2018-12-23T20:01:29.887Z,91.10
2018-12-23T20:04:08.005Z,91.20
2018-12-23T20:06:43.086Z,91.20
2018-12-23T20:09:24.430Z,91.20
2018-12-23T20:12:28.510Z,91.20
2018-12-23T20:15:03.459Z,91.10
2018-12-23T20:18:04.496Z,91.30
2018-12-23T20:20:48.766Z,91.30
2018-12-23T20:23:50.003Z,91.30
2018-12-23T20:26:24.838Z,91.40
2018-12-23T20:29:11.980Z,91.40
2018-12-23T20:31:53.079Z,91.50
2018-12-23T20:34:34.180Z,91.40
2018-12-23T20:37:18.423Z,91.50
2018-12-23T20:39:50.824Z,91.50
2018-12-23T20:42:35.031Z,91.50
2018-12-23T20:45:39.116Z,91.60
2018-12-23T20:48:16.936Z,91.60
2018-12-23T20:51:00.752Z,91.70
2018-12-23T20:53:48.101Z,91.70
2018-12-23T20:56:32.496Z,91.70
2018-12-23T20:59:04.742Z,91.60
2018-12-23T21:01:57.796Z,91.70
2018-12-23T21:04:35.654Z,91.70
2018-12-23T21:07:33.215Z,91.80
2018-12-23T21:10:37.235Z,91.90
2018-12-23T21:13:26.345Z,91.90
2018-12-23T21:16:13.518Z,91.90
2018-12-23T21:19:22.183Z,92.00
2018-12-23T21:22:12.459Z,91.90
2018-12-23T21:25:10.943Z,91.90
2018-12-23T21:28:07.198Z,92.00
2018-12-23T21:30:44.878Z,91.90
2018-12-23T21:33:26.327Z,92.20
2018-12-23T21:36:12.925Z,92.20
2018-12-23T21:39:10.994Z,92.10
2018-12-23T21:41:58.254Z,92.30
2018-12-23T21:44:30.496Z,92.00
2018-12-23T21:47:26.534Z,92.10
2018-12-23T21:50:00.950Z,92.10
2018-12-23T21:52:52.699Z,92.50
2018-12-23T21:55:44.384Z,92.30
2018-12-23T21:58:34.404Z,92.30
2018-12-23T22:01:17.984Z,92.40
2018-12-23T22:03:59.276Z,92.30
2018-12-23T22:06:43.432Z,92.20
2018-12-23T22:09:34.756Z,92.30
2018-12-23T22:12:15.846Z,92.10
2018-12-23T22:14:44.992Z,92.20
2018-12-23T22:17:13.573Z,92.20
2018-12-23T22:19:42.163Z,92.30
2018-12-23T22:22:11.287Z,92.30
2018-12-23T22:24:39.876Z,92.20
2018-12-23T22:27:08.599Z,92.10
2018-12-23T22:29:37.941Z,91.90
2018-12-23T22:32:06.608Z,92.00
2018-12-23T22:34:35.763Z,92.20
2018-12-23T22:37:04.945Z,92.30
2018-12-23T22:39:34.330Z,92.20
2018-12-23T22:42:03.224Z,92.30
2018-12-23T22:44:32.374Z,92.00
2018-12-23T22:47:01.517Z,92.10
2018-12-23T22:49:30.657Z,92.20
2018-12-23T22:51:59.829Z,92.00
2018-12-23T22:54:28.396Z,92.10
2018-12-23T22:56:57.009Z,92.00
2018-12-23T22:59:25.577Z,92.10
2018-12-23T23:01:54.164Z,92.30
2018-12-23T23:04:23.297Z,92.40
2018-12-23T23:06:51.893Z,92.30
2018-12-23T23:09:20.465Z,92.50
2018-12-23T23:11:50.052Z,92.30
2018-12-23T23:14:18.882Z,92.50
2018-12-23T23:16:47.487Z,92.40
2018-12-23T23:19:16.075Z,92.50
2018-12-23T23:21:44.635Z,92.40
2018-12-23T23:24:13.200Z,92.40
2018-12-23T23:26:41.776Z,92.10
2018-12-23T23:29:10.348Z,92.30
2018-12-23T23:31:38.912Z,92.50
2018-12-23T23:34:08.046Z,92.90
2018-12-23T23:36:36.615Z,92.70
2018-12-23T23:39:06.540Z,92.80
2018-12-23T23:41:35.095Z,93.00
2018-12-23T23:44:03.752Z,93.10
2018-12-23T23:46:32.320Z,93.10
2018-12-23T23:49:00.920Z,93.00
2018-12-23T23:51:29.492Z,93.00
2018-12-23T23:53:58.084Z,93.10
2018-12-23T23:56:26.644Z,93.00
2018-12-23T23:58:55.234Z,93.00
